sensor_id;sensor_type;location;lat;lon;timestamp;temperature;humidity
68746;SHT31;66104;45.456;11.064;2023-04-12T00:02:00;15.08;47.18
68746;SHT31;66104;45.456;11.064;2023-04-12T00:04:35;15.07;47.19
68746;SHT31;66104;45.456;11.064;2023-04-12T00:07:11;15.07;47.23
68746;SHT31;66104;45.456;11.064;2023-04-12T00:09:49;15.06;47.33
68746;SHT31;66104;45.456;11.064;2023-04-12T00:12:25;15.05;47.39
68746;SHT31;66104;45.456;11.064;2023-04-12T00:15:03;15.04;47.50
68746;SHT31;66104;45.456;11.064;2023-04-12T00:17:43;15.05;47.52
68746;SHT31;66104;45.456;11.064;2023-04-12T00:20:20;15.05;47.55
68746;SHT31;66104;45.456;11.064;2023-04-12T00:22:58;15.06;47.60
68746;SHT31;66104;45.456;11.064;2023-04-12T00:25:34;15.08;47.60
68746;SHT31;66104;45.456;11.064;2023-04-12T00:28:10;15.10;47.55
68746;SHT31;66104;45.456;11.064;2023-04-12T00:30:46;15.11;47.57
68746;SHT31;66104;45.456;11.064;2023-04-12T00:33:23;15.13;47.58
68746;SHT31;66104;45.456;11.064;2023-04-12T00:35:59;15.10;47.60
68746;SHT31;66104;45.456;11.064;2023-04-12T00:38:37;15.10;47.59
68746;SHT31;66104;45.456;11.064;2023-04-12T00:41:13;15.11;47.65
68746;SHT31;66104;45.456;11.064;2023-04-12T00:43:50;15.11;47.69
68746;SHT31;66104;45.456;11.064;2023-04-12T00:46:26;15.12;47.72
68746;SHT31;66104;45.456;11.064;2023-04-12T00:49:03;15.11;47.68
68746;SHT31;66104;45.456;11.064;2023-04-12T00:51:42;15.13;47.69
68746;SHT31;66104;45.456;11.064;2023-04-12T00:54:18;15.15;47.77
68746;SHT31;66104;45.456;11.064;2023-04-12T00:56:55;15.17;47.78
68746;SHT31;66104;45.456;11.064;2023-04-12T00:59:33;15.18;47.70
68746;SHT31;66104;45.456;11.064;2023-04-12T01:02:12;15.19;47.75
68746;SHT31;66104;45.456;11.064;2023-04-12T01:04:49;15.18;47.74
68746;SHT31;66104;45.456;11.064;2023-04-12T01:07:31;15.16;47.69
68746;SHT31;66104;45.456;11.064;2023-04-12T01:10:28;15.15;47.76
68746;SHT31;66104;45.456;11.064;2023-04-12T01:13:19;15.17;47.80
68746;SHT31;66104;45.456;11.064;2023-04-12T01:16:06;15.16;47.84
68746;SHT31;66104;45.456;11.064;2023-04-12T01:18:55;15.17;47.76
68746;SHT31;66104;45.456;11.064;2023-04-12T01:21:53;15.16;47.81
68746;SHT31;66104;45.456;11.064;2023-04-12T01:24:54;15.14;47.87
68746;SHT31;66104;45.456;11.064;2023-04-12T01:27:55;15.13;47.91
68746;SHT31;66104;45.456;11.064;2023-04-12T01:30:35;15.11;47.94
68746;SHT31;66104;45.456;11.064;2023-04-12T01:33:15;15.10;47.94
68746;SHT31;66104;45.456;11.064;2023-04-12T01:35:59;15.08;47.86
68746;SHT31;66104;45.456;11.064;2023-04-12T01:38:44;15.07;47.88
68746;SHT31;66104;45.456;11.064;2023-04-12T01:41:23;15.06;47.90
68746;SHT31;66104;45.456;11.064;2023-04-12T01:44:01;15.05;47.91
68746;SHT31;66104;45.456;11.064;2023-04-12T01:46:38;15.02;47.92
68746;SHT31;66104;45.456;11.064;2023-04-12T01:49:16;14.98;48.05
68746;SHT31;66104;45.456;11.064;2023-04-12T01:51:57;14.96;47.97
68746;SHT31;66104;45.456;11.064;2023-04-12T01:54:44;14.97;48.02
68746;SHT31;66104;45.456;11.064;2023-04-12T01:57:28;14.95;48.06
68746;SHT31;66104;45.456;11.064;2023-04-12T02:00:10;14.97;48.11
68746;SHT31;66104;45.456;11.064;2023-04-12T02:02:52;14.97;48.08
68746;SHT31;66104;45.456;11.064;2023-04-12T02:05:30;14.98;48.02
68746;SHT31;66104;45.456;11.064;2023-04-12T02:08:06;14.96;48.06
68746;SHT31;66104;45.456;11.064;2023-04-12T02:10:44;14.93;48.05
68746;SHT31;66104;45.456;11.064;2023-04-12T02:13:21;14.92;48.12
68746;SHT31;66104;45.456;11.064;2023-04-12T02:15:58;14.93;48.04
68746;SHT31;66104;45.456;11.064;2023-04-12T02:18:35;14.95;48.09
68746;SHT31;66104;45.456;11.064;2023-04-12T02:21:14;14.96;48.03
68746;SHT31;66104;45.456;11.064;2023-04-12T02:23:50;14.96;48.10
68746;SHT31;66104;45.456;11.064;2023-04-12T02:26:26;14.97;48.09
68746;SHT31;66104;45.456;11.064;2023-04-12T02:29:03;14.97;48.09
68746;SHT31;66104;45.456;11.064;2023-04-12T02:31:41;14.97;48.11
68746;SHT31;66104;45.456;11.064;2023-04-12T02:34:18;14.98;48.14
68746;SHT31;66104;45.456;11.064;2023-04-12T02:37:01;15.02;48.09
68746;SHT31;66104;45.456;11.064;2023-04-12T02:39:38;15.07;48.03
68746;SHT31;66104;45.456;11.064;2023-04-12T02:42:15;15.11;47.91
68746;SHT31;66104;45.456;11.064;2023-04-12T02:44:51;15.13;47.87
68746;SHT31;66104;45.456;11.064;2023-04-12T02:47:28;15.16;47.80
68746;SHT31;66104;45.456;11.064;2023-04-12T02:50:07;15.19;47.72
68746;SHT31;66104;45.456;11.064;2023-04-12T02:53:00;15.20;47.60
68746;SHT31;66104;45.456;11.064;2023-04-12T02:55:36;15.21;47.69
68746;SHT31;66104;45.456;11.064;2023-04-12T02:58:12;15.22;47.67
68746;SHT31;66104;45.456;11.064;2023-04-12T03:00:49;15.24;47.72
68746;SHT31;66104;45.456;11.064;2023-04-12T03:03:30;15.27;47.86
68746;SHT31;66104;45.456;11.064;2023-04-12T03:06:21;15.28;47.94
68746;SHT31;66104;45.456;11.064;2023-04-12T03:09:00;15.31;47.90
68746;SHT31;66104;45.456;11.064;2023-04-12T03:11:37;15.34;47.78
68746;SHT31;66104;45.456;11.064;2023-04-12T03:14:13;15.34;47.51
68746;SHT31;66104;45.456;11.064;2023-04-12T03:16:50;15.32;47.61
68746;SHT31;66104;45.456;11.064;2023-04-12T03:19:26;15.33;47.59
68746;SHT31;66104;45.456;11.064;2023-04-12T03:22:03;15.34;47.54
68746;SHT31;66104;45.456;11.064;2023-04-12T03:24:41;15.33;47.53
68746;SHT31;66104;45.456;11.064;2023-04-12T03:27:20;15.35;47.61
68746;SHT31;66104;45.456;11.064;2023-04-12T03:29:56;15.37;47.61
68746;SHT31;66104;45.456;11.064;2023-04-12T03:32:35;15.38;47.66
68746;SHT31;66104;45.456;11.064;2023-04-12T03:35:11;15.39;47.87
68746;SHT31;66104;45.456;11.064;2023-04-12T03:37:49;15.39;48.09
68746;SHT31;66104;45.456;11.064;2023-04-12T03:40:24;15.40;48.19
68746;SHT31;66104;45.456;11.064;2023-04-12T03:43:02;15.40;48.17
68746;SHT31;66104;45.456;11.064;2023-04-12T03:45:38;15.41;48.36
68746;SHT31;66104;45.456;11.064;2023-04-12T03:48:15;15.38;48.52
68746;SHT31;66104;45.456;11.064;2023-04-12T03:50:52;15.38;48.50
68746;SHT31;66104;45.456;11.064;2023-04-12T03:53:38;15.39;48.41
68746;SHT31;66104;45.456;11.064;2023-04-12T03:56:16;15.37;48.13
68746;SHT31;66104;45.456;11.064;2023-04-12T03:58:54;15.34;48.26
68746;SHT31;66104;45.456;11.064;2023-04-12T04:01:31;15.31;48.51
68746;SHT31;66104;45.456;11.064;2023-04-12T04:04:07;15.27;48.62
68746;SHT31;66104;45.456;11.064;2023-04-12T04:06:44;15.24;48.61
68746;SHT31;66104;45.456;11.064;2023-04-12T04:09:21;15.22;48.54
68746;SHT31;66104;45.456;11.064;2023-04-12T04:11:57;15.21;48.47
68746;SHT31;66104;45.456;11.064;2023-04-12T04:14:34;15.20;48.58
68746;SHT31;66104;45.456;11.064;2023-04-12T04:17:12;15.19;48.61
68746;SHT31;66104;45.456;11.064;2023-04-12T04:19:49;15.17;48.69
68746;SHT31;66104;45.456;11.064;2023-04-12T04:22:26;15.17;48.70
68746;SHT31;66104;45.456;11.064;2023-04-12T04:25:03;15.16;48.77
68746;SHT31;66104;45.456;11.064;2023-04-12T04:27:44;15.16;48.75
68746;SHT31;66104;45.456;11.064;2023-04-12T04:30:20;15.15;48.78
68746;SHT31;66104;45.456;11.064;2023-04-12T04:32:57;15.16;48.77
68746;SHT31;66104;45.456;11.064;2023-04-12T04:35:34;15.18;48.77
68746;SHT31;66104;45.456;11.064;2023-04-12T04:38:23;15.19;48.78
68746;SHT31;66104;45.456;11.064;2023-04-12T04:41:07;15.20;48.84
68746;SHT31;66104;45.456;11.064;2023-04-12T04:43:51;15.20;48.90
68746;SHT31;66104;45.456;11.064;2023-04-12T04:46:30;15.21;48.90
68746;SHT31;66104;45.456;11.064;2023-04-12T04:49:06;15.20;48.96
68746;SHT31;66104;45.456;11.064;2023-04-12T04:51:44;15.22;49.04
68746;SHT31;66104;45.456;11.064;2023-04-12T04:54:23;15.23;49.16
68746;SHT31;66104;45.456;11.064;2023-04-12T04:57:00;15.23;49.20
68746;SHT31;66104;45.456;11.064;2023-04-12T04:59:40;15.25;49.30
68746;SHT31;66104;45.456;11.064;2023-04-12T05:02:17;15.26;49.18
68746;SHT31;66104;45.456;11.064;2023-04-12T05:04:54;15.25;49.14
68746;SHT31;66104;45.456;11.064;2023-04-12T05:07:32;15.23;49.15
68746;SHT31;66104;45.456;11.064;2023-04-12T05:10:11;15.24;49.27
68746;SHT31;66104;45.456;11.064;2023-04-12T05:12:47;15.24;49.34
68746;SHT31;66104;45.456;11.064;2023-04-12T05:15:24;15.24;49.45
68746;SHT31;66104;45.456;11.064;2023-04-12T05:18:01;15.23;49.50
68746;SHT31;66104;45.456;11.064;2023-04-12T05:20:39;15.23;49.61
68746;SHT31;66104;45.456;11.064;2023-04-12T05:23:16;15.24;49.65
68746;SHT31;66104;45.456;11.064;2023-04-12T05:25:53;15.25;49.65
68746;SHT31;66104;45.456;11.064;2023-04-12T05:28:31;15.26;49.36
68746;SHT31;66104;45.456;11.064;2023-04-12T05:31:08;15.25;48.88
68746;SHT31;66104;45.456;11.064;2023-04-12T05:33:45;15.26;49.01
68746;SHT31;66104;45.456;11.064;2023-04-12T05:36:25;15.25;48.84
68746;SHT31;66104;45.456;11.064;2023-04-12T05:39:04;15.24;49.21
68746;SHT31;66104;45.456;11.064;2023-04-12T05:41:41;15.21;49.41
68746;SHT31;66104;45.456;11.064;2023-04-12T05:44:17;15.14;49.57
68746;SHT31;66104;45.456;11.064;2023-04-12T05:46:52;15.06;49.58
68746;SHT31;66104;45.456;11.064;2023-04-12T05:49:29;14.99;49.77
68746;SHT31;66104;45.456;11.064;2023-04-12T05:52:08;14.97;49.54
68746;SHT31;66104;45.456;11.064;2023-04-12T05:54:45;14.96;49.53
68746;SHT31;66104;45.456;11.064;2023-04-12T05:57:22;14.99;49.57
68746;SHT31;66104;45.456;11.064;2023-04-12T05:59:59;15.02;49.28
68746;SHT31;66104;45.456;11.064;2023-04-12T06:02:42;15.03;49.02
68746;SHT31;66104;45.456;11.064;2023-04-12T06:05:18;15.06;48.81
68746;SHT31;66104;45.456;11.064;2023-04-12T06:07:55;15.06;48.77
68746;SHT31;66104;45.456;11.064;2023-04-12T06:10:33;15.09;48.35
68746;SHT31;66104;45.456;11.064;2023-04-12T06:13:10;15.14;47.74
68746;SHT31;66104;45.456;11.064;2023-04-12T06:15:46;15.21;47.40
68746;SHT31;66104;45.456;11.064;2023-04-12T06:18:24;15.29;47.00
68746;SHT31;66104;45.456;11.064;2023-04-12T06:21:00;15.36;46.39
68746;SHT31;66104;45.456;11.064;2023-04-12T06:23:39;15.42;45.61
68746;SHT31;66104;45.456;11.064;2023-04-12T06:26:15;15.46;45.46
68746;SHT31;66104;45.456;11.064;2023-04-12T06:28:52;15.49;45.44
68746;SHT31;66104;45.456;11.064;2023-04-12T06:31:28;15.52;45.98
68746;SHT31;66104;45.456;11.064;2023-04-12T06:34:05;15.52;45.88
68746;SHT31;66104;45.456;11.064;2023-04-12T06:36:41;15.54;46.00
68746;SHT31;66104;45.456;11.064;2023-04-12T06:39:19;15.57;45.25
68746;SHT31;66104;45.456;11.064;2023-04-12T06:41:55;15.61;45.64
68746;SHT31;66104;45.456;11.064;2023-04-12T06:44:32;15.65;44.46
68746;SHT31;66104;45.456;11.064;2023-04-12T06:47:08;15.69;44.01
68746;SHT31;66104;45.456;11.064;2023-04-12T06:49:46;15.74;44.03
68746;SHT31;66104;45.456;11.064;2023-04-12T06:52:24;15.74;43.68
68746;SHT31;66104;45.456;11.064;2023-04-12T06:55:00;15.73;43.39
68746;SHT31;66104;45.456;11.064;2023-04-12T06:57:42;15.72;43.37
68746;SHT31;66104;45.456;11.064;2023-04-12T07:00:20;15.72;44.13
68746;SHT31;66104;45.456;11.064;2023-04-12T07:03:00;15.70;44.44
68746;SHT31;66104;45.456;11.064;2023-04-12T07:05:38;15.68;44.46
68746;SHT31;66104;45.456;11.064;2023-04-12T07:08:15;15.68;43.95
68746;SHT31;66104;45.456;11.064;2023-04-12T07:10:53;15.69;44.61
68746;SHT31;66104;45.456;11.064;2023-04-12T07:13:48;15.70;45.26
68746;SHT31;66104;45.456;11.064;2023-04-12T07:16:23;15.70;45.43
68746;SHT31;66104;45.456;11.064;2023-04-12T07:19:01;15.68;45.45
68746;SHT31;66104;45.456;11.064;2023-04-12T07:21:37;15.67;45.53
68746;SHT31;66104;45.456;11.064;2023-04-12T07:24:14;15.63;45.70
68746;SHT31;66104;45.456;11.064;2023-04-12T07:26:53;15.58;45.71
68746;SHT31;66104;45.456;11.064;2023-04-12T07:29:30;15.55;45.65
68746;SHT31;66104;45.456;11.064;2023-04-12T07:32:08;15.52;45.81
68746;SHT31;66104;45.456;11.064;2023-04-12T07:34:45;15.51;45.75
68746;SHT31;66104;45.456;11.064;2023-04-12T07:37:21;15.49;45.71
68746;SHT31;66104;45.456;11.064;2023-04-12T07:40:00;15.51;45.87
68746;SHT31;66104;45.456;11.064;2023-04-12T07:42:40;15.53;45.66
68746;SHT31;66104;45.456;11.064;2023-04-12T07:45:16;15.54;45.77
68746;SHT31;66104;45.456;11.064;2023-04-12T07:47:53;15.53;46.17
68746;SHT31;66104;45.456;11.064;2023-04-12T07:50:30;15.51;46.03
68746;SHT31;66104;45.456;11.064;2023-04-12T07:53:21;15.53;46.07
68746;SHT31;66104;45.456;11.064;2023-04-12T07:55:59;15.53;45.70
68746;SHT31;66104;45.456;11.064;2023-04-12T07:58:37;15.55;45.36
68746;SHT31;66104;45.456;11.064;2023-04-12T08:01:13;15.59;45.72
68746;SHT31;66104;45.456;11.064;2023-04-12T08:03:49;15.60;46.18
68746;SHT31;66104;45.456;11.064;2023-04-12T08:06:26;15.67;45.82
68746;SHT31;66104;45.456;11.064;2023-04-12T08:09:03;15.73;45.04
68746;SHT31;66104;45.456;11.064;2023-04-12T08:11:40;15.78;43.96
68746;SHT31;66104;45.456;11.064;2023-04-12T08:14:16;15.86;43.75
68746;SHT31;66104;45.456;11.064;2023-04-12T08:16:53;15.93;44.39
68746;SHT31;66104;45.456;11.064;2023-04-12T08:19:30;16.00;44.37
68746;SHT31;66104;45.456;11.064;2023-04-12T08:22:07;16.01;44.45
68746;SHT31;66104;45.456;11.064;2023-04-12T08:24:43;16.03;42.85
68746;SHT31;66104;45.456;11.064;2023-04-12T08:27:19;16.00;41.86
68746;SHT31;66104;45.456;11.064;2023-04-12T08:29:56;15.98;42.91
68746;SHT31;66104;45.456;11.064;2023-04-12T08:32:34;15.98;43.58
68746;SHT31;66104;45.456;11.064;2023-04-12T08:35:11;15.98;42.31
68746;SHT31;66104;45.456;11.064;2023-04-12T08:37:47;15.96;41.66
68746;SHT31;66104;45.456;11.064;2023-04-12T08:40:23;15.97;42.77
68746;SHT31;66104;45.456;11.064;2023-04-12T08:43:00;15.98;42.50
68746;SHT31;66104;45.456;11.064;2023-04-12T08:45:42;15.97;42.38
68746;SHT31;66104;45.456;11.064;2023-04-12T08:48:19;15.97;42.23
68746;SHT31;66104;45.456;11.064;2023-04-12T08:50:57;15.95;42.12
68746;SHT31;66104;45.456;11.064;2023-04-12T08:53:37;15.95;42.28
68746;SHT31;66104;45.456;11.064;2023-04-12T08:56:15;15.98;42.04
68746;SHT31;66104;45.456;11.064;2023-04-12T08:58:52;15.97;41.79
68746;SHT31;66104;45.456;11.064;2023-04-12T09:01:30;15.95;41.50
68746;SHT31;66104;45.456;11.064;2023-04-12T09:04:11;15.94;41.78
68746;SHT31;66104;45.456;11.064;2023-04-12T09:06:48;15.94;42.04
68746;SHT31;66104;45.456;11.064;2023-04-12T09:12:27;15.94;41.51
68746;SHT31;66104;45.456;11.064;2023-04-12T09:15:08;15.92;41.56
68746;SHT31;66104;45.456;11.064;2023-04-12T09:17:46;15.92;41.82
68746;SHT31;66104;45.456;11.064;2023-04-12T09:20:36;15.94;41.89
68746;SHT31;66104;45.456;11.064;2023-04-12T09:23:19;15.95;41.94
68746;SHT31;66104;45.456;11.064;2023-04-12T09:25:56;16.01;41.62
68746;SHT31;66104;45.456;11.064;2023-04-12T09:28:33;16.07;41.25
68746;SHT31;66104;45.456;11.064;2023-04-12T09:31:15;16.10;41.45
68746;SHT31;66104;45.456;11.064;2023-04-12T09:33:52;16.19;41.41
68746;SHT31;66104;45.456;11.064;2023-04-12T09:36:40;16.27;41.64
68746;SHT31;66104;45.456;11.064;2023-04-12T09:39:16;16.35;41.94
68746;SHT31;66104;45.456;11.064;2023-04-12T09:42:06;16.44;41.63
68746;SHT31;66104;45.456;11.064;2023-04-12T09:45:17;16.47;41.19
68746;SHT31;66104;45.456;11.064;2023-04-12T09:47:56;16.46;41.43
68746;SHT31;66104;45.456;11.064;2023-04-12T09:50:33;16.48;41.20
68746;SHT31;66104;45.456;11.064;2023-04-12T09:53:14;16.49;40.83
68746;SHT31;66104;45.456;11.064;2023-04-12T09:55:50;16.50;40.95
68746;SHT31;66104;45.456;11.064;2023-04-12T09:58:28;16.52;40.90
68746;SHT31;66104;45.456;11.064;2023-04-12T10:01:06;16.53;41.23
68746;SHT31;66104;45.456;11.064;2023-04-12T10:03:45;16.59;41.36
68746;SHT31;66104;45.456;11.064;2023-04-12T10:06:22;16.62;40.70
68746;SHT31;66104;45.456;11.064;2023-04-12T10:09:01;16.60;40.84
68746;SHT31;66104;45.456;11.064;2023-04-12T10:11:38;16.64;40.80
68746;SHT31;66104;45.456;11.064;2023-04-12T10:14:18;16.68;40.76
68746;SHT31;66104;45.456;11.064;2023-04-12T10:16:59;16.67;40.38
68746;SHT31;66104;45.456;11.064;2023-04-12T10:19:37;16.65;40.60
68746;SHT31;66104;45.456;11.064;2023-04-12T10:22:15;16.63;40.81
68746;SHT31;66104;45.456;11.064;2023-04-12T10:24:53;16.67;40.93
68746;SHT31;66104;45.456;11.064;2023-04-12T10:27:29;16.71;40.58
68746;SHT31;66104;45.456;11.064;2023-04-12T10:30:21;16.72;40.82
68746;SHT31;66104;45.456;11.064;2023-04-12T10:33:12;16.74;41.35
68746;SHT31;66104;45.456;11.064;2023-04-12T10:35:50;16.81;41.53
68746;SHT31;66104;45.456;11.064;2023-04-12T10:38:45;16.80;41.36
68746;SHT31;66104;45.456;11.064;2023-04-12T10:41:47;16.81;41.26
68746;SHT31;66104;45.456;11.064;2023-04-12T10:44:55;16.76;41.33
68746;SHT31;66104;45.456;11.064;2023-04-12T10:48:09;16.66;41.59
68746;SHT31;66104;45.456;11.064;2023-04-12T10:51:16;16.66;41.79
68746;SHT31;66104;45.456;11.064;2023-04-12T10:57:07;16.58;41.58
68746;SHT31;66104;45.456;11.064;2023-04-12T11:00:19;16.55;41.27
68746;SHT31;66104;45.456;11.064;2023-04-12T11:03:17;16.53;41.33
68746;SHT31;66104;45.456;11.064;2023-04-12T11:05:58;16.55;41.42
68746;SHT31;66104;45.456;11.064;2023-04-12T11:12:14;16.49;41.71
68746;SHT31;66104;45.456;11.064;2023-04-12T11:14:52;16.50;42.34
68746;SHT31;66104;45.456;11.064;2023-04-12T11:18:01;16.58;41.91
68746;SHT31;66104;45.456;11.064;2023-04-12T11:20:40;16.60;41.82
68746;SHT31;66104;45.456;11.064;2023-04-12T11:23:18;16.63;42.43
68746;SHT31;66104;45.456;11.064;2023-04-12T11:25:54;16.68;42.08
68746;SHT31;66104;45.456;11.064;2023-04-12T11:28:33;16.74;41.25
68746;SHT31;66104;45.456;11.064;2023-04-12T11:31:10;16.79;41.37
68746;SHT31;66104;45.456;11.064;2023-04-12T11:33:50;16.92;41.81
68746;SHT31;66104;45.456;11.064;2023-04-12T11:36:29;17.01;40.83
68746;SHT31;66104;45.456;11.064;2023-04-12T11:39:06;17.02;40.71
68746;SHT31;66104;45.456;11.064;2023-04-12T11:41:44;17.08;40.64
68746;SHT31;66104;45.456;11.064;2023-04-12T11:44:21;17.20;40.82
68746;SHT31;66104;45.456;11.064;2023-04-12T11:47:17;17.33;40.07
68746;SHT31;66104;45.456;11.064;2023-04-12T11:49:55;17.41;39.70
68746;SHT31;66104;45.456;11.064;2023-04-12T11:52:31;17.47;39.69
68746;SHT31;66104;45.456;11.064;2023-04-12T11:55:10;17.52;39.99
68746;SHT31;66104;45.456;11.064;2023-04-12T11:57:47;17.60;39.60
68746;SHT31;66104;45.456;11.064;2023-04-12T12:00:29;17.66;39.53
68746;SHT31;66104;45.456;11.064;2023-04-12T12:03:06;17.71;39.14
68746;SHT31;66104;45.456;11.064;2023-04-12T12:05:44;17.69;39.44
68746;SHT31;66104;45.456;11.064;2023-04-12T12:08:21;17.71;39.95
68746;SHT31;66104;45.456;11.064;2023-04-12T12:10:59;17.73;39.75
68746;SHT31;66104;45.456;11.064;2023-04-12T12:13:46;17.76;39.87
68746;SHT31;66104;45.456;11.064;2023-04-12T12:16:25;17.67;39.36
68746;SHT31;66104;45.456;11.064;2023-04-12T12:19:04;17.64;40.35
68746;SHT31;66104;45.456;11.064;2023-04-12T12:21:40;17.62;40.49
68746;SHT31;66104;45.456;11.064;2023-04-12T12:24:17;17.64;40.88
68746;SHT31;66104;45.456;11.064;2023-04-12T12:26:55;17.71;40.76
68746;SHT31;66104;45.456;11.064;2023-04-12T12:29:36;17.83;40.22
68746;SHT31;66104;45.456;11.064;2023-04-12T12:32:19;18.01;39.83
68746;SHT31;66104;45.456;11.064;2023-04-12T12:34:56;18.15;39.57
68746;SHT31;66104;45.456;11.064;2023-04-12T12:37:46;18.24;39.33
68746;SHT31;66104;45.456;11.064;2023-04-12T12:40:30;18.26;38.70
68746;SHT31;66104;45.456;11.064;2023-04-12T12:43:06;18.23;39.03
68746;SHT31;66104;45.456;11.064;2023-04-12T12:45:52;18.28;39.44
68746;SHT31;66104;45.456;11.064;2023-04-12T12:48:29;18.36;39.50
68746;SHT31;66104;45.456;11.064;2023-04-12T12:51:09;18.48;39.55
68746;SHT31;66104;45.456;11.064;2023-04-12T12:53:48;18.55;39.34
68746;SHT31;66104;45.456;11.064;2023-04-12T12:56:26;18.50;39.27
68746;SHT31;66104;45.456;11.064;2023-04-12T12:59:03;18.49;39.61
68746;SHT31;66104;45.456;11.064;2023-04-12T13:01:41;18.54;39.14
68746;SHT31;66104;45.456;11.064;2023-04-12T13:04:18;18.58;38.72
68746;SHT31;66104;45.456;11.064;2023-04-12T13:06:54;18.67;39.05
68746;SHT31;66104;45.456;11.064;2023-04-12T13:09:32;18.78;39.13
68746;SHT31;66104;45.456;11.064;2023-04-12T13:12:12;18.86;38.87
68746;SHT31;66104;45.456;11.064;2023-04-12T13:14:50;18.91;38.52
68746;SHT31;66104;45.456;11.064;2023-04-12T13:17:50;18.95;38.83
68746;SHT31;66104;45.456;11.064;2023-04-12T13:20:27;18.99;39.01
68746;SHT31;66104;45.456;11.064;2023-04-12T13:23:04;19.02;38.68
68746;SHT31;66104;45.456;11.064;2023-04-12T13:25:41;19.00;38.49
68746;SHT31;66104;45.456;11.064;2023-04-12T13:28:18;18.98;38.97
68746;SHT31;66104;45.456;11.064;2023-04-12T13:30:56;19.00;38.65
68746;SHT31;66104;45.456;11.064;2023-04-12T13:33:33;19.05;39.10
68746;SHT31;66104;45.456;11.064;2023-04-12T13:36:10;19.12;38.29
68746;SHT31;66104;45.456;11.064;2023-04-12T13:38:47;19.05;38.57
68746;SHT31;66104;45.456;11.064;2023-04-12T13:41:24;19.11;38.59
68746;SHT31;66104;45.456;11.064;2023-04-12T13:44:02;19.07;38.72
68746;SHT31;66104;45.456;11.064;2023-04-12T13:46:40;19.06;38.70
68746;SHT31;66104;45.456;11.064;2023-04-12T13:49:17;19.04;38.75
68746;SHT31;66104;45.456;11.064;2023-04-12T13:51:56;19.01;39.22
68746;SHT31;66104;45.456;11.064;2023-04-12T13:54:34;19.02;39.32
68746;SHT31;66104;45.456;11.064;2023-04-12T13:57:11;19.01;39.13
68746;SHT31;66104;45.456;11.064;2023-04-12T13:59:47;18.93;39.03
68746;SHT31;66104;45.456;11.064;2023-04-12T14:02:24;18.87;39.26
68746;SHT31;66104;45.456;11.064;2023-04-12T14:05:02;18.80;39.37
68746;SHT31;66104;45.456;11.064;2023-04-12T14:07:42;18.74;39.59
68746;SHT31;66104;45.456;11.064;2023-04-12T14:10:20;18.67;39.41
68746;SHT31;66104;45.456;11.064;2023-04-12T14:12:57;18.56;39.55
68746;SHT31;66104;45.456;11.064;2023-04-12T14:15:34;18.49;39.81
68746;SHT31;66104;45.456;11.064;2023-04-12T14:18:11;18.42;39.68
68746;SHT31;66104;45.456;11.064;2023-04-12T14:20:49;18.34;40.00
68746;SHT31;66104;45.456;11.064;2023-04-12T14:23:26;18.26;40.33
68746;SHT31;66104;45.456;11.064;2023-04-12T14:26:04;18.17;40.22
68746;SHT31;66104;45.456;11.064;2023-04-12T14:28:47;18.09;40.35
68746;SHT31;66104;45.456;11.064;2023-04-12T14:31:24;18.00;40.21
68746;SHT31;66104;45.456;11.064;2023-04-12T14:34:02;17.93;40.40
68746;SHT31;66104;45.456;11.064;2023-04-12T14:36:40;17.90;40.82
68746;SHT31;66104;45.456;11.064;2023-04-12T14:39:17;17.85;40.46
68746;SHT31;66104;45.456;11.064;2023-04-12T14:41:55;17.84;40.77
68746;SHT31;66104;45.456;11.064;2023-04-12T14:44:31;17.79;40.51
68746;SHT31;66104;45.456;11.064;2023-04-12T14:47:08;17.75;40.76
68746;SHT31;66104;45.456;11.064;2023-04-12T14:49:45;17.75;40.62
68746;SHT31;66104;45.456;11.064;2023-04-12T14:52:22;17.68;40.49
68746;SHT31;66104;45.456;11.064;2023-04-12T14:54:59;17.65;40.92
68746;SHT31;66104;45.456;11.064;2023-04-12T14:57:39;17.62;41.34
68746;SHT31;66104;45.456;11.064;2023-04-12T15:00:18;17.57;41.16
68746;SHT31;66104;45.456;11.064;2023-04-12T15:02:57;17.54;40.94
68746;SHT31;66104;45.456;11.064;2023-04-12T15:05:36;17.51;40.87
68746;SHT31;66104;45.456;11.064;2023-04-12T15:08:12;17.50;40.97
68746;SHT31;66104;45.456;11.064;2023-04-12T15:10:51;17.49;40.70
68746;SHT31;66104;45.456;11.064;2023-04-12T15:13:28;17.45;40.85
68746;SHT31;66104;45.456;11.064;2023-04-12T15:16:04;17.44;40.76
68746;SHT31;66104;45.456;11.064;2023-04-12T15:18:44;17.42;40.91
68746;SHT31;66104;45.456;11.064;2023-04-12T15:21:23;17.41;41.01
68746;SHT31;66104;45.456;11.064;2023-04-12T15:24:01;17.38;40.82
68746;SHT31;66104;45.456;11.064;2023-04-12T15:26:39;17.35;40.71
68746;SHT31;66104;45.456;11.064;2023-04-12T15:29:16;17.33;40.83
68746;SHT31;66104;45.456;11.064;2023-04-12T15:31:53;17.32;40.69
68746;SHT31;66104;45.456;11.064;2023-04-12T15:34:30;17.28;40.64
68746;SHT31;66104;45.456;11.064;2023-04-12T15:37:06;17.21;40.41
68746;SHT31;66104;45.456;11.064;2023-04-12T15:39:43;17.16;40.33
68746;SHT31;66104;45.456;11.064;2023-04-12T15:42:19;17.16;40.43
68746;SHT31;66104;45.456;11.064;2023-04-12T15:44:56;17.14;40.35
68746;SHT31;66104;45.456;11.064;2023-04-12T15:47:32;17.08;40.16
68746;SHT31;66104;45.456;11.064;2023-04-12T15:50:10;17.01;40.12
68746;SHT31;66104;45.456;11.064;2023-04-12T15:52:47;16.93;40.02
68746;SHT31;66104;45.456;11.064;2023-04-12T15:55:26;16.87;40.31
68746;SHT31;66104;45.456;11.064;2023-04-12T15:58:02;16.83;40.60
68746;SHT31;66104;45.456;11.064;2023-04-12T16:00:38;16.80;40.53
68746;SHT31;66104;45.456;11.064;2023-04-12T16:03:16;16.77;40.59
68746;SHT31;66104;45.456;11.064;2023-04-12T16:05:54;16.74;40.72
68746;SHT31;66104;45.456;11.064;2023-04-12T16:08:31;16.70;40.57
68746;SHT31;66104;45.456;11.064;2023-04-12T16:11:08;16.67;40.50
68746;SHT31;66104;45.456;11.064;2023-04-12T16:13:46;16.66;40.66
68746;SHT31;66104;45.456;11.064;2023-04-12T16:16:22;16.65;40.44
68746;SHT31;66104;45.456;11.064;2023-04-12T16:18:59;16.63;40.62
68746;SHT31;66104;45.456;11.064;2023-04-12T16:21:38;16.60;40.68
68746;SHT31;66104;45.456;11.064;2023-04-12T16:24:15;16.60;40.89
68746;SHT31;66104;45.456;11.064;2023-04-12T16:26:51;16.59;41.09
68746;SHT31;66104;45.456;11.064;2023-04-12T16:29:27;16.58;41.33
68746;SHT31;66104;45.456;11.064;2023-04-12T16:32:03;16.58;41.22
68746;SHT31;66104;45.456;11.064;2023-04-12T16:34:40;16.57;41.27
68746;SHT31;66104;45.456;11.064;2023-04-12T16:37:17;16.55;41.41
68746;SHT31;66104;45.456;11.064;2023-04-12T16:39:53;16.54;41.40